CYWL

Williams Lake Airport

Williams Lake, British Columbia, Canada
METAR CYWL 191500Z 12005KT 15SM FEW120 M04/M06 A2958 RMK AC2 SLP057
Observed Flight Rules
Jan-19 @ 15:00 UTC (26 minutes ago) Visual Flight Rules
Wind Visibility Clouds
120° at 5 knots 15 miles
  • Few at 12,000' AGL
Temperatures Readings
Current -4°C / 25°F
Dewpoint -6°C / 21°F
Humidity 86%
Altimeter 29.58" Hg
Pressure 1005.7 hPa
Elevation 940
METAR CYWL 191500Z 12005KT 15SM FEW120 M04/M06 A2958 RMK AC2 SLP057
Observed Flight Rules
Jan-19 @ 15:00 UTC
(26 minutes ago)
VFR
Wind Visibility
120° at 5 knots 15 miles
Clouds
  • Few at 12,000' AGL
Temperature Dewpoint
-4°C / 25°F -6°C / 21°F
Humidity Altimeter Pressure
86% 29.58" Hg 1005.7 hPa